Time;durP1;ratioP1;P1;durP2;ratioP2;P2;SDS_P1;SDS_P2;PMS_P1;PMS_P2;Temp;Humidity;BMP_temperature;BMP_pressure;BME280_temperature;BME280_humidity;BME280_pressure;Samples;Min_cycle;Max_cycle;Signal;HPM_P1;HPM_P2
2021/11/08 00:00:01;;;;;;;0.50;0.40;;;19.90;47.00;;;;;;1778863;80;21115;-10
2021/11/08 00:02:30;;;;;;;1.05;0.50;;;19.90;47.00;;;;;;1779351;80;21236;-10
2021/11/08 00:04:58;;;;;;;0.72;0.50;;;19.90;47.00;;;;;;1757842;81;21149;-10
2021/11/08 00:07:26;;;;;;;0.60;0.50;;;19.90;47.00;;;;;;1779764;81;21567;-10
2021/11/08 00:09:55;;;;;;;0.42;0.37;;;19.90;46.90;;;;;;1779623;80;21111;-10
2021/11/08 00:12:23;;;;;;;0.62;0.50;;;19.90;46.80;;;;;;1779601;81;21178;-10
2021/11/08 00:14:58;;;;;;;0.57;0.30;;;20.00;46.80;;;;;;1779691;81;21675;-10
2021/11/08 00:17:36;;;;;;;0.50;0.45;;;20.00;46.70;;;;;;1778200;81;21619;-12
2021/11/08 00:20:03;;;;;;;0.80;0.40;;;20.00;46.60;;;;;;1777576;80;21577;-10
2021/11/08 00:22:27;;;;;;;0.80;0.70;;;20.00;46.70;;;;;;1778967;80;21119;-12
2021/11/08 00:24:55;;;;;;;0.60;0.42;;;20.00;46.60;;;;;;1779591;80;21547;-12
2021/11/08 00:27:23;;;;;;;0.42;0.42;;;20.10;46.60;;;;;;1779544;79;21107;-12
2021/11/08 00:29:51;;;;;;;0.33;0.30;;;20.10;46.60;;;;;;1779660;81;21531;-12
2021/11/08 00:32:22;;;;;;;1.07;0.57;;;20.10;46.50;;;;;;1779669;81;21221;-12
2021/11/08 00:34:50;;;;;;;0.50;0.50;;;20.10;46.50;;;;;;1779629;81;21608;-12
2021/11/08 00:37:18;;;;;;;0.50;0.40;;;20.10;46.50;;;;;;1779567;81;21599;-12
2021/11/08 00:39:45;;;;;;;0.42;0.35;;;20.10;46.50;;;;;;1779765;81;21579;-12
2021/11/08 00:42:13;;;;;;;0.78;0.55;;;20.10;46.40;;;;;;1779605;81;21096;-9
2021/11/08 00:44:41;;;;;;;0.45;0.42;;;20.10;46.40;;;;;;1779653;81;21079;-10
2021/11/08 00:47:09;;;;;;;0.90;0.50;;;20.10;46.40;;;;;;1779593;81;21154;-10
2021/11/08 00:49:38;;;;;;;1.10;0.50;;;20.10;46.30;;;;;;1779605;81;21098;-12
2021/11/08 00:52:11;;;;;;;1.32;0.60;;;20.30;46.40;;;;;;1779563;81;21116;-10
2021/11/08 00:54:36;;;;;;;0.30;0.30;;;20.20;46.20;;;;;;1779145;80;21116;-10
2021/11/08 00:57:06;;;;;;;0.50;0.30;;;20.20;46.20;;;;;;1779600;81;21531;-10
2021/11/08 00:59:35;;;;;;;0.53;0.40;;;20.30;46.20;;;;;;1779425;80;21549;-10
2021/11/08 01:02:03;;;;;;;0.72;0.55;;;20.30;46.10;;;;;;1779630;81;21092;-10
2021/11/08 01:04:30;;;;;;;1.00;0.53;;;20.30;46.10;;;;;;1779581;81;21548;-10
2021/11/08 01:07:00;;;;;;;0.90;0.40;;;20.30;46.00;;;;;;1779607;81;21206;-10
2021/11/08 01:09:28;;;;;;;0.78;0.33;;;20.30;46.00;;;;;;1779638;81;21639;-10
2021/11/08 01:11:56;;;;;;;0.93;0.47;;;20.30;45.90;;;;;;1779618;81;21528;-10
2021/11/08 01:14:24;;;;;;;0.37;0.37;;;20.30;45.80;;;;;;1779559;81;21540;-10
2021/11/08 01:16:56;;;;;;;0.68;0.37;;;20.40;45.70;;;;;;1779580;81;21087;-10
2021/11/08 01:19:27;;;;;;;0.70;0.40;;;20.40;46.20;;;;;;1779660;81;21145;-10
2021/11/08 01:22:03;;;;;;;0.72;0.50;;;20.40;45.60;;;;;;1788055;80;21511;-10
2021/11/08 01:24:24;;;;;;;1.10;0.40;;;20.40;45.50;;;;;;1791937;80;21145;-10
2021/11/08 01:26:52;;;;;;;0.20;0.20;;;20.40;45.50;;;;;;1793626;79;21098;-10
2021/11/08 01:29:20;;;;;;;0.40;0.30;;;20.40;45.40;;;;;;1793678;80;21551;-10
2021/11/08 01:31:47;;;;;;;1.30;0.60;;;20.40;45.40;;;;;;1793650;80;21086;-10
2021/11/08 01:34:15;;;;;;;0.68;0.40;;;20.40;45.40;;;;;;1793800;80;21599;-10
2021/11/08 01:36:50;;;;;;;0.70;0.50;;;20.40;45.30;;;;;;1793736;80;21539;-10
2021/11/08 01:39:15;;;;;;;0.40;0.40;;;20.50;45.40;;;;;;1792059;80;21059;-10
2021/11/08 01:41:43;;;;;;;1.07;0.37;;;20.50;45.40;;;;;;1793131;80;21098;-10
2021/11/08 01:44:10;;;;;;;1.07;0.45;;;20.40;44.80;;;;;;1793684;80;21055;-10
2021/11/08 01:46:39;;;;;;;0.62;0.45;;;20.40;45.30;;;;;;1793782;80;21523;-10
2021/11/08 01:49:07;;;;;;;0.37;0.30;;;20.50;45.30;;;;;;1793735;80;21090;-10
2021/11/08 01:51:35;;;;;;;0.40;0.40;;;20.50;45.30;;;;;;1793731;80;21590;-10
2021/11/08 01:54:08;;;;;;;0.33;0.30;;;20.40;45.20;;;;;;1793743;80;21094;-10
2021/11/08 01:56:35;;;;;;;0.40;0.40;;;20.40;45.20;;;;;;1793685;80;21157;-10
2021/11/08 01:59:04;;;;;;;0.65;0.50;;;20.40;45.20;;;;;;1793661;80;21079;-10
2021/11/08 02:01:31;;;;;;;0.50;0.40;;;20.40;45.20;;;;;;1793669;80;21086;-10
2021/11/08 02:03:59;;;;;;;0.50;0.40;;;20.40;45.10;;;;;;1793696;80;21520;-10
2021/11/08 02:06:26;;;;;;;0.60;0.50;;;20.40;45.10;;;;;;1793779;80;21579;-10
2021/11/08 02:08:54;;;;;;;0.40;0.30;;;20.40;45.00;;;;;;1793644;80;21042;-10
2021/11/08 02:11:22;;;;;;;0.33;0.30;;;20.40;44.90;;;;;;1793629;80;21097;-10
2021/11/08 02:13:50;;;;;;;0.40;0.30;;;20.40;44.90;;;;;;1793745;80;21559;-10
2021/11/08 02:16:18;;;;;;;0.40;0.40;;;20.40;44.70;;;;;;1793657;80;21086;-10
2021/11/08 02:18:46;;;;;;;0.47;0.40;;;20.40;44.60;;;;;;1793686;80;21097;-10
2021/11/08 02:21:13;;;;;;;0.80;0.40;;;20.40;44.60;;;;;;1793626;80;21086;-11
2021/11/08 02:23:43;;;;;;;0.55;0.40;;;20.40;44.40;;;;;;1793469;80;21125;-10
2021/11/08 02:26:16;;;;;;;0.82;0.50;;;20.40;44.30;;;;;;1793385;79;21650;-10
2021/11/08 02:28:44;;;;;;;0.40;0.40;;;20.50;44.30;;;;;;1793135;80;21063;-10
2021/11/08 02:31:17;;;;;;;0.70;0.35;;;20.50;44.20;;;;;;1793530;80;21606;-10
2021/11/08 02:33:49;;;;;;;0.50;0.30;;;20.50;44.10;;;;;;1793490;80;21094;-10
2021/11/08 02:36:16;;;;;;;0.55;0.40;;;20.50;44.10;;;;;;1793624;79;21149;-10
2021/11/08 02:38:48;;;;;;;0.53;0.40;;;20.50;44.20;;;;;;1793418;80;21086;-10
2021/11/08 02:41:15;;;;;;;0.85;0.40;;;20.50;44.10;;;;;;1792854;80;21090;-10
2021/11/08 02:43:42;;;;;;;0.40;0.40;;;20.50;44.00;;;;;;1793423;80;21153;-10
2021/11/08 02:46:12;;;;;;;0.37;0.37;;;20.50;44.00;;;;;;1793458;80;21179;-10
2021/11/08 02:48:41;;;;;;;0.53;0.42;;;20.50;44.00;;;;;;1793352;80;21656;-10
2021/11/08 02:51:15;;;;;;;0.40;0.30;;;20.50;43.90;;;;;;1793300;80;21161;-10
2021/11/08 02:53:42;;;;;;;0.40;0.40;;;20.50;44.00;;;;;;1792904;80;21063;-10
2021/11/08 02:56:10;;;;;;;0.65;0.30;;;20.50;44.00;;;;;;1793503;80;21095;-10
2021/11/08 02:58:39;;;;;;;0.82;0.30;;;20.50;44.00;;;;;;1793619;80;21527;-10
2021/11/08 03:01:07;;;;;;;1.07;0.80;;;20.50;44.00;;;;;;1793472;80;21488;-10
2021/11/08 03:03:39;;;;;;;0.33;0.33;;;20.50;44.00;;;;;;1793499;80;21543;-10
2021/11/08 03:06:24;;;;;;;0.40;0.40;;;20.60;44.00;;;;;;1792701;80;21543;-10
2021/11/08 03:08:46;;;;;;;0.72;0.40;;;20.60;44.00;;;;;;1792995;80;21133;-11
2021/11/08 03:11:13;;;;;;;0.45;0.40;;;20.50;44.00;;;;;;1793468;80;21156;-11
2021/11/08 03:13:50;;;;;;;0.35;0.30;;;20.60;44.10;;;;;;1793435;80;21540;-11
2021/11/08 03:16:40;;;;;;;0.33;0.28;;;20.60;44.00;;;;;;1793007;80;21094;-11
2021/11/08 03:18:42;;;;;;;0.72;0.50;;;20.60;44.10;;;;;;1789113;80;21137;-11
2021/11/08 03:21:18;;;;;;;0.35;0.35;;;20.60;44.00;;;;;;1793239;80;21215;-11
2021/11/08 03:23:46;;;;;;;0.57;0.40;;;20.60;44.00;;;;;;1788603;80;21185;-11
2021/11/08 03:27:04;;;;;;;0.40;0.30;;;20.60;44.10;;;;;;1788417;79;21083;-11
2021/11/08 03:28:43;;;;;;;0.40;0.40;;;20.60;44.20;;;;;;1779930;80;21086;-11
2021/11/08 03:31:11;;;;;;;0.30;0.30;;;20.60;44.10;;;;;;1819519;79;21563;-11
2021/11/08 03:33:40;;;;;;;0.50;0.37;;;20.70;44.20;;;;;;1783772;80;21098;-11
2021/11/08 03:36:08;;;;;;;0.50;0.30;;;20.70;44.10;;;;;;1819434;79;21079;-11
2021/11/08 03:38:38;;;;;;;0.72;0.40;;;20.70;44.60;;;;;;1819608;78;21063;-11
2021/11/08 03:41:06;;;;;;;0.37;0.30;;;20.70;44.00;;;;;;1823002;79;21085;-10
2021/11/08 03:43:34;;;;;;;0.57;0.55;;;20.70;43.80;;;;;;1819645;79;21579;-11
2021/11/08 03:46:02;;;;;;;0.40;0.40;;;20.70;43.70;;;;;;1783882;80;21551;-11
2021/11/08 03:48:29;;;;;;;0.40;0.30;;;20.80;43.60;;;;;;1819578;79;21164;-11
2021/11/08 03:50:58;;;;;;;0.65;0.45;;;20.80;43.50;;;;;;1783848;80;21627;-10
2021/11/08 03:53:26;;;;;;;0.65;0.45;;;20.80;43.40;;;;;;1819577;79;21088;-11
2021/11/08 03:55:53;;;;;;;0.93;0.62;;;20.80;43.30;;;;;;1819507;79;21118;-11
2021/11/08 03:58:21;;;;;;;0.72;0.47;;;20.80;43.20;;;;;;1823052;79;21228;-11
2021/11/08 04:00:49;;;;;;;0.45;0.45;;;20.80;43.20;;;;;;1819536;79;21385;-11
2021/11/08 04:03:17;;;;;;;0.25;0.25;;;20.80;43.10;;;;;;1819582;79;21584;-11
2021/11/08 04:05:45;;;;;;;0.37;0.30;;;20.90;43.10;;;;;;1823094;79;21650;-11
2021/11/08 04:08:17;;;;;;;0.30;0.30;;;20.80;43.00;;;;;;1819537;79;21725;-11
2021/11/08 04:10:44;;;;;;;0.55;0.40;;;20.90;43.20;;;;;;1819525;78;21454;-11
2021/11/08 04:13:13;;;;;;;0.60;0.50;;;20.80;43.20;;;;;;1823061;77;21579;-11
2021/11/08 04:15:43;;;;;;;0.40;0.25;;;20.80;43.30;;;;;;1819666;79;21071;-11
2021/11/08 04:18:14;;;;;;;0.53;0.50;;;20.80;43.20;;;;;;1783812;80;21051;-10
2021/11/08 04:20:42;;;;;;;0.53;0.40;;;20.80;43.30;;;;;;1819557;79;21051;-11
2021/11/08 04:23:10;;;;;;;0.42;0.40;;;20.90;43.40;;;;;;1819388;79;21162;-10
2021/11/08 04:25:39;;;;;;;0.42;0.35;;;20.80;43.50;;;;;;1822975;77;21520;-11
2021/11/08 04:28:06;;;;;;;1.15;0.47;;;20.90;43.40;;;;;;1819576;79;21076;-11
2021/11/08 04:30:37;;;;;;;0.85;0.40;;;20.90;43.50;;;;;;1819526;79;21531;-11
2021/11/08 04:33:15;;;;;;;0.40;0.30;;;20.90;43.40;;;;;;1822513;79;21200;-11
2021/11/08 04:35:44;;;;;;;0.82;0.70;;;20.90;43.50;;;;;;1816448;79;21157;-10
2021/11/08 04:38:27;;;;;;;0.75;0.50;;;20.90;43.40;;;;;;1782341;80;21122;-10
2021/11/08 04:41:01;;;;;;;0.80;0.50;;;21.00;43.50;;;;;;1810091;79;21578;-11
2021/11/08 04:48:56;;;;;;;0.40;0.30;;;21.00;43.50;;;;;;1819381;79;21067;-11
2021/11/08 04:51:30;;;;;;;0.60;0.50;;;21.00;43.50;;;;;;1817546;79;21170;-10
2021/11/08 04:54:05;;;;;;;0.78;0.50;;;21.00;43.50;;;;;;1819646;79;21118;-10
2021/11/08 05:31:49;;;;;;;0.50;0.50;;;21.20;43.20;;;;;;1833877;78;21082;-10
2021/11/08 05:34:17;;;;;;;1.12;0.60;;;21.10;43.30;;;;;;1833952;78;21532;-11
2021/11/08 05:36:45;;;;;;;1.45;0.60;;;21.10;43.30;;;;;;1837263;78;21600;-10
2021/11/08 05:39:12;;;;;;;0.90;0.70;;;21.20;43.20;;;;;;1833978;78;21068;-11
2021/11/08 05:41:43;;;;;;;1.10;0.65;;;21.30;43.10;;;;;;1797717;79;21594;-11
2021/11/08 05:44:10;;;;;;;0.95;0.70;;;21.30;43.10;;;;;;1833968;78;21052;-11
2021/11/08 05:46:39;;;;;;;1.12;0.70;;;21.30;43.10;;;;;;1833918;78;21051;-11
2021/11/08 05:49:06;;;;;;;0.60;0.60;;;21.30;43.20;;;;;;1837239;78;21559;-11
2021/11/08 05:51:33;;;;;;;1.80;0.80;;;21.40;43.20;;;;;;1834008;78;21051;-11
2021/11/08 05:54:01;;;;;;;1.95;0.80;;;21.40;43.00;;;;;;1798779;79;21070;-11
2021/11/08 05:56:33;;;;;;;2.60;0.80;;;21.50;43.00;;;;;;1803853;79;21551;-11
2021/11/08 06:50:58;;;;;;;1.72;0.72;;;21.70;43.90;;;;;;1816122;79;21137;-10
2021/11/08 06:53:22;;;;;;;1.25;0.70;;;21.70;44.00;;;;;;1815725;78;21091;-10
2021/11/08 06:55:52;;;;;;;2.35;0.98;;;21.70;43.90;;;;;;1815995;79;21508;-10
2021/11/08 06:58:21;;;;;;;1.05;0.70;;;21.80;43.80;;;;;;1815789;78;21525;-11
2021/11/08 07:00:49;;;;;;;1.35;0.62;;;21.90;43.70;;;;;;1815867;78;21060;-11
2021/11/08 07:03:16;;;;;;;1.02;0.80;;;21.90;43.70;;;;;;1816028;79;21032;-11
2021/11/08 07:05:44;;;;;;;1.07;0.60;;;22.00;43.80;;;;;;1815980;79;21083;-11
2021/11/08 07:08:12;;;;;;;1.50;0.93;;;22.00;43.60;;;;;;1816007;79;21533;-10
2021/11/08 07:10:40;;;;;;;0.80;0.80;;;22.00;43.50;;;;;;1816043;78;21548;-11
2021/11/08 07:13:07;;;;;;;1.17;0.90;;;22.10;43.40;;;;;;1816025;79;21029;-11
2021/11/08 07:15:35;;;;;;;0.80;0.65;;;22.10;43.30;;;;;;1816182;79;21552;-11
2021/11/08 07:18:03;;;;;;;0.60;0.60;;;22.20;43.20;;;;;;1816169;79;21091;-11
2021/11/08 07:20:31;;;;;;;1.27;0.80;;;22.10;43.00;;;;;;1816068;79;21604;-11
2021/11/08 07:22:59;;;;;;;0.82;0.60;;;22.20;42.70;;;;;;1815965;79;21083;-11
2021/11/08 07:25:27;;;;;;;1.02;0.60;;;22.20;42.70;;;;;;1816155;78;21555;-10
2021/11/08 07:27:54;;;;;;;1.10;0.80;;;22.30;42.70;;;;;;1816085;79;21626;-11
2021/11/08 07:30:22;;;;;;;1.25;0.72;;;22.30;42.70;;;;;;1816066;78;21075;-11
2021/11/08 07:32:50;;;;;;;1.15;0.80;;;22.30;42.60;;;;;;1816127;79;21559;-11
2021/11/08 07:35:17;;;;;;;1.00;0.70;;;22.30;42.60;;;;;;1816047;79;21154;-11
2021/11/08 07:37:44;;;;;;;1.00;0.60;;;22.30;42.40;;;;;;1816113;79;21532;-11
2021/11/08 07:40:12;;;;;;;1.85;1.20;;;22.40;42.50;;;;;;1816053;79;21064;-11
2021/11/08 07:42:42;;;;;;;1.37;0.75;;;22.40;42.50;;;;;;1816038;79;21649;-11
2021/11/08 07:45:10;;;;;;;1.95;1.02;;;22.40;42.40;;;;;;1816078;79;21161;-11
2021/11/08 07:47:38;;;;;;;0.62;0.60;;;22.40;42.40;;;;;;1815981;79;21091;-11
2021/11/08 07:50:06;;;;;;;1.32;0.95;;;22.40;42.20;;;;;;1816134;79;21528;-11
2021/11/08 07:52:34;;;;;;;2.15;0.82;;;22.40;42.40;;;;;;1816158;79;21615;-11
2021/11/08 07:55:02;;;;;;;0.80;0.80;;;22.50;42.40;;;;;;1816089;79;21567;-11
2021/11/08 07:57:29;;;;;;;1.27;0.82;;;22.40;42.30;;;;;;1816069;79;21113;-11
2021/11/08 07:59:57;;;;;;;0.90;0.60;;;22.50;42.30;;;;;;1816022;79;21073;-11
2021/11/08 08:02:24;;;;;;;1.45;0.82;;;22.50;42.10;;;;;;1816025;79;21607;-11
2021/11/08 08:04:52;;;;;;;1.02;0.70;;;22.50;42.20;;;;;;1816025;79;21099;-11
2021/11/08 08:07:19;;;;;;;0.60;0.60;;;22.60;42.30;;;;;;1816085;79;21071;-11
2021/11/08 08:09:47;;;;;;;2.20;1.10;;;22.60;42.30;;;;;;1816028;79;21493;-11
2021/11/08 08:12:14;;;;;;;0.85;0.60;;;22.60;42.20;;;;;;1816104;79;21529;-11
2021/11/08 08:14:42;;;;;;;0.82;0.65;;;22.60;42.10;;;;;;1816046;79;21107;-11
2021/11/08 08:17:09;;;;;;;1.22;0.93;;;22.70;42.40;;;;;;1816067;78;21549;-11
2021/11/08 08:19:37;;;;;;;1.12;0.70;;;22.70;42.30;;;;;;1815999;79;21509;-11
2021/11/08 08:22:04;;;;;;;1.10;0.62;;;22.70;42.30;;;;;;1816098;79;21052;-11
2021/11/08 08:24:32;;;;;;;1.05;0.65;;;22.70;41.80;;;;;;1815949;79;21576;-11
2021/11/08 08:27:04;;;;;;;0.85;0.50;;;22.70;41.30;;;;;;1816014;78;21637;-11
2021/11/08 08:29:28;;;;;;;2.52;0.88;;;22.80;41.20;;;;;;1815337;79;21060;-11
2021/11/08 08:31:56;;;;;;;0.93;0.57;;;22.70;41.00;;;;;;1816019;79;21052;-10
2021/11/08 08:34:24;;;;;;;1.32;0.80;;;22.70;40.80;;;;;;1816119;79;21537;-11
2021/11/08 08:36:53;;;;;;;1.37;0.70;;;22.70;40.40;;;;;;1816014;79;21582;-11
2021/11/08 08:39:21;;;;;;;0.70;0.60;;;22.70;40.50;;;;;;1816044;79;21122;-11
2021/11/08 08:41:48;;;;;;;1.67;0.82;;;22.70;40.70;;;;;;1816180;79;21071;-11
2021/11/08 08:44:16;;;;;;;0.90;0.60;;;22.70;40.80;;;;;;1816017;79;21075;-11
2021/11/08 08:46:44;;;;;;;1.87;0.80;;;22.70;40.80;;;;;;1816007;79;21150;-11
2021/11/08 08:49:13;;;;;;;0.95;0.60;;;22.70;40.70;;;;;;1816143;79;21646;-11
2021/11/08 08:51:42;;;;;;;0.82;0.68;;;22.70;40.60;;;;;;1816052;79;21059;-11
2021/11/08 08:54:09;;;;;;;0.80;0.65;;;22.70;41.10;;;;;;1816139;79;21099;-10
2021/11/08 08:56:37;;;;;;;1.50;0.80;;;22.70;41.20;;;;;;1816023;79;21556;-11
2021/11/08 08:59:05;;;;;;;1.40;0.60;;;22.60;41.00;;;;;;1815985;79;21619;-11
2021/11/08 09:01:32;;;;;;;1.40;0.68;;;22.70;41.10;;;;;;1815948;78;21532;-11
2021/11/08 09:04:00;;;;;;;0.75;0.47;;;22.60;41.00;;;;;;1816014;79;21079;-11
2021/11/08 09:06:28;;;;;;;0.82;0.50;;;22.60;41.40;;;;;;1816077;78;21536;-11
2021/11/08 09:08:56;;;;;;;0.85;0.70;;;22.60;41.50;;;;;;1816059;79;21528;-11
2021/11/08 09:11:23;;;;;;;1.12;0.70;;;22.60;41.40;;;;;;1816068;79;21544;-11
2021/11/08 09:13:52;;;;;;;1.50;0.50;;;22.70;41.30;;;;;;1815954;79;21111;-11
2021/11/08 09:16:20;;;;;;;1.12;0.70;;;22.70;41.40;;;;;;1816010;79;21498;-11
2021/11/08 09:18:49;;;;;;;1.25;0.93;;;22.70;41.80;;;;;;1816022;78;21640;-11
2021/11/08 09:21:17;;;;;;;1.57;0.93;;;22.70;42.40;;;;;;1816003;79;21486;-11
2021/11/08 09:23:46;;;;;;;0.70;0.50;;;22.70;41.70;;;;;;1815993;79;21524;-11
2021/11/08 09:26:14;;;;;;;1.05;0.50;;;22.70;41.70;;;;;;1815840;78;21650;-11
2021/11/08 09:28:42;;;;;;;0.98;0.57;;;22.70;41.80;;;;;;1816077;79;21083;-11
2021/11/08 09:31:09;;;;;;;0.60;0.57;;;22.70;42.20;;;;;;1815979;79;21145;-11
2021/11/08 09:33:37;;;;;;;0.98;0.55;;;22.70;42.10;;;;;;1816021;79;21561;-11
2021/11/08 09:36:07;;;;;;;1.15;0.70;;;22.70;42.10;;;;;;1815990;79;21556;-11
2021/11/08 09:38:38;;;;;;;1.33;0.93;;;22.70;41.90;;;;;;1816277;79;21157;-11
2021/11/08 09:41:10;;;;;;;1.07;0.40;;;22.70;41.90;;;;;;1815697;79;21083;-11
2021/11/08 09:43:41;;;;;;;1.50;0.80;;;22.70;42.20;;;;;;1816227;79;21552;-11
2021/11/08 09:46:08;;;;;;;1.10;0.60;;;22.70;42.30;;;;;;1816289;78;21546;-11
2021/11/08 09:48:38;;;;;;;0.70;0.50;;;22.70;42.10;;;;;;1816030;78;21622;-11
2021/11/08 09:51:10;;;;;;;0.90;0.50;;;22.70;41.80;;;;;;1815922;79;21087;-11
2021/11/08 09:53:37;;;;;;;0.95;0.60;;;22.80;41.80;;;;;;1816154;79;21095;-10
2021/11/08 09:56:06;;;;;;;1.00;0.60;;;22.80;42.10;;;;;;1815966;79;21618;-11
2021/11/08 09:58:36;;;;;;;1.15;0.60;;;22.80;42.10;;;;;;1816082;79;21504;-11
2021/11/08 10:01:09;;;;;;;1.70;0.60;;;22.80;42.10;;;;;;1815948;79;21048;-11
2021/11/08 10:03:37;;;;;;;1.95;0.80;;;22.80;41.90;;;;;;1815990;78;21470;-11
2021/11/08 10:06:05;;;;;;;0.68;0.50;;;22.80;41.70;;;;;;1815983;78;21619;-11
2021/11/08 10:08:35;;;;;;;1.30;0.70;;;22.80;42.00;;;;;;1815998;79;21625;-11
2021/11/08 10:11:08;;;;;;;0.50;0.40;;;22.80;42.10;;;;;;1815915;79;21075;-11
2021/11/08 10:13:36;;;;;;;1.20;0.60;;;22.80;41.90;;;;;;1815499;79;21187;-11
2021/11/08 10:16:08;;;;;;;0.53;0.53;;;22.90;41.80;;;;;;1815997;79;21048;-11
2021/11/08 10:18:36;;;;;;;0.85;0.78;;;22.90;41.80;;;;;;1815975;79;21099;-11
2021/11/08 10:21:11;;;;;;;0.70;0.40;;;22.80;41.90;;;;;;1815966;78;21622;-11
2021/11/08 10:23:40;;;;;;;0.40;0.30;;;22.90;41.90;;;;;;1816010;78;21553;-11
2021/11/08 10:26:10;;;;;;;0.33;0.30;;;22.90;41.80;;;;;;1815454;78;21623;-11
2021/11/08 10:28:37;;;;;;;1.17;0.45;;;22.90;41.40;;;;;;1816010;79;21095;-11
2021/11/08 10:31:15;;;;;;;1.90;0.70;;;22.90;41.70;;;;;;1815930;79;21075;-11
2021/11/08 10:33:43;;;;;;;0.72;0.60;;;22.90;41.70;;;;;;1816036;79;21090;-11
2021/11/08 10:36:16;;;;;;;1.07;0.60;;;22.90;41.60;;;;;;1816010;79;21102;-10
2021/11/08 10:38:45;;;;;;;0.55;0.42;;;22.90;41.30;;;;;;1816168;79;21067;-10
2021/11/08 10:41:24;;;;;;;0.57;0.40;;;22.90;41.10;;;;;;1815920;79;21153;-10
2021/11/08 10:43:55;;;;;;;1.00;0.57;;;23.00;41.40;;;;;;1816032;79;21106;-10
2021/11/08 10:46:35;;;;;;;0.80;0.60;;;23.00;41.60;;;;;;1815074;79;21066;-10
2021/11/08 10:49:12;;;;;;;0.62;0.40;;;22.90;41.40;;;;;;1815350;79;21095;-10
2021/11/08 10:51:41;;;;;;;0.45;0.37;;;22.90;41.30;;;;;;1815932;79;21056;-10
2021/11/08 10:54:11;;;;;;;0.82;0.50;;;23.00;41.40;;;;;;1815891;79;21544;-10
2021/11/08 10:56:41;;;;;;;0.82;0.60;;;22.90;41.70;;;;;;1816011;79;21092;-10
2021/11/08 10:59:12;;;;;;;1.70;0.60;;;23.00;42.00;;;;;;1816080;78;21521;-10
2021/11/08 11:01:43;;;;;;;1.30;0.45;;;23.00;41.80;;;;;;1815458;79;21080;-10
2021/11/08 11:04:11;;;;;;;0.60;0.30;;;23.00;41.80;;;;;;1815247;79;21164;-10
2021/11/08 11:06:48;;;;;;;0.85;0.50;;;23.10;41.90;;;;;;1815936;79;21126;-10
2021/11/08 11:09:23;;;;;;;0.90;0.50;;;23.10;42.20;;;;;;1815922;79;21162;-10
2021/11/08 11:12:06;;;;;;;1.10;0.40;;;23.10;42.30;;;;;;1815968;79;21641;-10
2021/11/08 11:14:35;;;;;;;0.68;0.53;;;23.00;42.20;;;;;;1815942;79;21016;-10
2021/11/08 11:17:07;;;;;;;0.93;0.55;;;23.00;42.10;;;;;;1815936;79;21118;-10
2021/11/08 11:19:35;;;;;;;0.70;0.53;;;23.10;42.10;;;;;;1816203;78;21096;-10
2021/11/08 11:22:05;;;;;;;1.40;0.70;;;23.10;42.50;;;;;;1816022;79;21182;-10
2021/11/08 11:24:46;;;;;;;0.70;0.40;;;23.10;42.50;;;;;;1816113;79;21082;-10
2021/11/08 11:27:28;;;;;;;1.12;0.40;;;23.10;42.30;;;;;;1816038;78;21622;-10
2021/11/08 11:30:17;;;;;;;0.95;0.68;;;23.10;42.20;;;;;;1816149;79;21565;-10
2021/11/08 11:32:45;;;;;;;0.60;0.40;;;23.10;42.30;;;;;;1815987;79;21095;-10
2021/11/08 11:35:17;;;;;;;0.50;0.40;;;23.10;42.60;;;;;;1815928;79;21100;-10
2021/11/08 11:38:01;;;;;;;1.00;0.40;;;23.10;42.60;;;;;;1815817;79;21183;-10
2021/11/08 11:40:30;;;;;;;1.32;0.40;;;23.10;42.30;;;;;;1815771;78;21122;-10
2021/11/08 11:43:00;;;;;;;0.75;0.40;;;23.10;42.40;;;;;;1815947;79;21101;-10
2021/11/08 11:45:29;;;;;;;0.93;0.37;;;23.10;42.60;;;;;;1815527;79;21075;-10
2021/11/08 11:48:02;;;;;;;0.95;0.50;;;23.10;42.70;;;;;;1815922;79;21536;-10
2021/11/08 11:50:32;;;;;;;0.53;0.37;;;23.10;42.60;;;;;;1814948;79;21091;-10
2021/11/08 11:53:00;;;;;;;0.68;0.42;;;23.20;42.70;;;;;;1816007;79;21524;-10
2021/11/08 11:55:28;;;;;;;0.70;0.50;;;23.20;42.70;;;;;;1815944;79;21157;-10
2021/11/08 11:57:57;;;;;;;0.37;0.37;;;23.30;42.90;;;;;;1816022;79;21548;-10
2021/11/08 12:00:25;;;;;;;0.82;0.40;;;23.30;42.80;;;;;;1816050;79;21083;-10
2021/11/08 12:02:53;;;;;;;0.72;0.40;;;23.30;42.50;;;;;;1816045;78;21060;-10
2021/11/08 12:05:21;;;;;;;0.82;0.30;;;23.30;42.40;;;;;;1816097;79;21897;-10
2021/11/08 12:07:51;;;;;;;0.37;0.35;;;23.30;42.20;;;;;;1816184;79;21540;-10
2021/11/08 12:10:19;;;;;;;0.50;0.40;;;23.40;42.60;;;;;;1815777;79;21091;-10
2021/11/08 12:12:46;;;;;;;0.30;0.30;;;23.40;42.70;;;;;;1816028;79;21048;-10
2021/11/08 12:15:17;;;;;;;0.82;0.40;;;23.40;42.40;;;;;;1816159;79;21094;-10
2021/11/08 12:17:45;;;;;;;0.72;0.40;;;23.40;42.30;;;;;;1815761;79;21083;-10
2021/11/08 12:20:16;;;;;;;0.50;0.40;;;23.40;42.30;;;;;;1816096;78;21060;-10
2021/11/08 12:22:43;;;;;;;0.37;0.30;;;23.50;42.60;;;;;;1816117;78;21087;-10
2021/11/08 12:25:13;;;;;;;0.62;0.57;;;23.40;42.50;;;;;;1816070;79;21921;-10
2021/11/08 12:27:44;;;;;;;0.62;0.42;;;23.50;42.50;;;;;;1791337;78;21165;-10
2021/11/08 12:30:14;;;;;;;0.77;0.30;;;23.50;42.40;;;;;;1785559;79;21556;-10
2021/11/08 12:32:47;;;;;;;0.53;0.45;;;23.50;42.30;;;;;;1785355;80;21067;-10
2021/11/08 12:35:17;;;;;;;0.88;0.40;;;23.50;42.30;;;;;;1785400;79;21098;-10
2021/11/08 12:37:46;;;;;;;0.50;0.40;;;23.50;42.50;;;;;;1785395;80;21590;-10
2021/11/08 12:40:14;;;;;;;0.85;0.40;;;23.50;42.40;;;;;;1785401;80;21623;-10
2021/11/08 12:42:43;;;;;;;0.75;0.30;;;23.50;42.10;;;;;;1785369;80;21604;-10
2021/11/08 12:45:17;;;;;;;1.45;0.33;;;23.50;42.00;;;;;;1785460;80;21513;-10
2021/11/08 12:47:44;;;;;;;0.50;0.35;;;23.50;42.00;;;;;;1785346;79;21592;-10
2021/11/08 12:50:12;;;;;;;1.32;0.53;;;23.50;42.50;;;;;;1785385;80;21615;-10
2021/11/08 12:52:42;;;;;;;2.15;0.50;;;23.50;42.40;;;;;;1785340;80;21136;-10
2021/11/08 12:55:11;;;;;;;0.50;0.40;;;23.50;42.00;;;;;;1785417;80;21082;-10
2021/11/08 12:57:40;;;;;;;0.55;0.55;;;23.50;42.00;;;;;;1785391;79;21076;-10
2021/11/08 13:00:17;;;;;;;1.10;0.45;;;23.60;42.00;;;;;;1785334;79;21050;-10
2021/11/08 13:02:54;;;;;;;0.68;0.50;;;23.60;42.30;;;;;;1784999;80;21189;-10
2021/11/08 13:05:29;;;;;;;0.65;0.55;;;23.60;42.30;;;;;;1784577;79;21624;-10
2021/11/08 13:07:57;;;;;;;1.35;0.40;;;23.60;42.00;;;;;;1785391;80;21584;-10
2021/11/08 13:10:27;;;;;;;0.42;0.33;;;23.60;42.10;;;;;;1785407;80;21086;-10
2021/11/08 13:12:56;;;;;;;0.30;0.30;;;23.60;42.10;;;;;;1785313;80;21091;-10
2021/11/08 13:15:28;;;;;;;1.57;0.55;;;23.60;42.30;;;;;;1785377;80;21584;-10
2021/11/08 13:18:02;;;;;;;0.82;0.42;;;23.60;42.20;;;;;;1785593;80;21114;-10
2021/11/08 13:20:38;;;;;;;1.15;0.40;;;23.60;41.80;;;;;;1785411;80;21169;-10
2021/11/08 13:23:10;;;;;;;0.45;0.40;;;23.70;41.70;;;;;;1785340;80;21131;-10
2021/11/08 13:25:43;;;;;;;1.15;0.53;;;23.70;41.70;;;;;;1785353;79;21199;-10
2021/11/08 13:28:14;;;;;;;0.42;0.35;;;23.70;42.00;;;;;;1787264;79;21106;-10
2021/11/08 13:30:44;;;;;;;0.47;0.42;;;23.70;42.00;;;;;;1787518;80;21249;-10
2021/11/08 13:33:14;;;;;;;0.78;0.42;;;23.70;41.80;;;;;;1787658;80;21685;-10
2021/11/08 13:35:42;;;;;;;0.55;0.40;;;23.70;41.50;;;;;;1787139;80;21135;-10
2021/11/08 13:38:19;;;;;;;0.62;0.37;;;23.70;41.30;;;;;;1787609;80;21074;-10
2021/11/08 13:40:59;;;;;;;0.90;0.40;;;23.80;41.60;;;;;;1787551;80;21173;-10
2021/11/08 13:43:29;;;;;;;0.98;0.42;;;23.70;41.70;;;;;;1787568;80;21083;-10
2021/11/08 13:46:00;;;;;;;0.90;0.30;;;23.70;41.40;;;;;;1785529;80;21054;-10
2021/11/08 13:48:37;;;;;;;0.82;0.50;;;23.70;41.40;;;;;;1787209;80;21000;-10
2021/11/08 13:51:08;;;;;;;0.33;0.33;;;23.70;41.30;;;;;;1786803;80;21091;-10
2021/11/08 13:53:37;;;;;;;0.50;0.50;;;23.70;41.60;;;;;;1787087;80;21090;-10
2021/11/08 13:56:10;;;;;;;1.17;0.55;;;23.80;41.70;;;;;;1787531;80;21082;-10
2021/11/08 13:58:39;;;;;;;0.98;0.47;;;23.80;41.30;;;;;;1787576;80;21047;-11
2021/11/08 14:01:08;;;;;;;0.28;0.25;;;23.80;41.40;;;;;;1786993;80;21504;-10
2021/11/08 14:03:38;;;;;;;0.47;0.33;;;23.80;41.40;;;;;;1787623;80;21071;-10
2021/11/08 14:06:06;;;;;;;1.55;0.60;;;23.80;41.70;;;;;;1787592;80;21148;-10
2021/11/08 14:08:35;;;;;;;0.80;0.47;;;23.80;41.60;;;;;;1787586;80;21512;-10
2021/11/08 14:11:03;;;;;;;1.42;0.53;;;23.80;41.20;;;;;;1787641;80;21141;-10
2021/11/08 14:13:40;;;;;;;0.20;0.20;;;23.80;41.10;;;;;;1787616;80;21137;-10
2021/11/08 14:16:10;;;;;;;0.82;0.45;;;23.80;41.10;;;;;;1787652;80;21074;-10
2021/11/08 14:18:38;;;;;;;1.25;0.55;;;23.80;41.40;;;;;;1787627;80;21050;-10
2021/11/08 14:21:14;;;;;;;0.33;0.33;;;23.80;41.40;;;;;;1787551;80;21055;-10
2021/11/08 14:23:45;;;;;;;0.93;0.40;;;23.80;41.10;;;;;;1787532;79;21654;-10
2021/11/08 14:26:15;;;;;;;0.53;0.40;;;23.90;41.00;;;;;;1787721;79;21668;-10
2021/11/08 14:28:44;;;;;;;0.70;0.50;;;23.90;41.10;;;;;;1785810;79;21103;-10
2021/11/08 14:31:29;;;;;;;0.70;0.50;;;23.80;41.30;;;;;;1785424;80;21138;-10